ADDS METAR Data INFO
IDs: Format: Raw Decoded Include TAF

Data at: 0742 UTC 23 Jul 2018

KVKS 230735Z AUTO 00000KT 10SM CLR 25/24 A2983 RMK A01
KVKS 230715Z AUTO 00000KT 10SM CLR 25/24 A2984 RMK A01
KVKS 230655Z AUTO 00000KT 10SM CLR 24/24 A2984 RMK A01
KVKS 230635Z AUTO 00000KT 10SM CLR 25/25 A2983 RMK A01
KVKS 230615Z AUTO 00000KT 10SM CLR 25/25 A2984 RMK A01
KVKS 230555Z AUTO 00000KT 10SM CLR 25/25 A2984 RMK A01
KVKS 230535Z AUTO 00000KT 10SM CLR 25/25 A2984 RMK A01
KVKS 230515Z AUTO 00000KT 10SM CLR 25/25 A2984 RMK A01
KVKS 230455Z AUTO 00000KT 10SM CLR 25/25 A2985 RMK A01
KVKS 230435Z AUTO 00000KT 10SM CLR 25/25 A2985 RMK A01
KVKS 230415Z AUTO 00000KT 10SM CLR 26/25 A2984 RMK A01
KVKS 230355Z AUTO 00000KT 10SM CLR 26/25 A2984 RMK A01
KVKS 230335Z AUTO 00000KT 10SM CLR 26/25 A2984 RMK A01
KVKS 230315Z AUTO 00000KT 10SM CLR 27/25 A2984 RMK A01
KVKS 230255Z AUTO 00000KT 10SM CLR 26/25 A2983 RMK A01
KVKS 230235Z AUTO 00000KT 10SM CLR 27/24 A2982 RMK A01
KVKS 230215Z AUTO 09003KT 10SM CLR 28/24 A2981 RMK A01
KVKS 230155Z AUTO 16004KT 10SM CLR 27/24 A2981 RMK A01
KVKS 230135Z AUTO 00000KT 10SM CLR 28/24 A2982 RMK A01
KVKS 230115Z AUTO 00000KT 10SM CLR 28/24 A2982 RMK A01
KVKS 230055Z AUTO 00000KT 10SM CLR 29/23 A2982 RMK A01
KVKS 230035Z AUTO 00000KT 10SM CLR 29/23 A2983 RMK A01
KVKS 230015Z AUTO 03005KT 10SM CLR 30/23 A2983 RMK A01
KVKS 222355Z AUTO 03008KT 10SM CLR 31/24 A2982 RMK A01
KVKS 222335Z AUTO 03006KT 10SM CLR 31/24 A2982 RMK A01
KVKS 222315Z AUTO 36007KT 10SM CLR 32/24 A2982 RMK A01
KVKS 222255Z AUTO 01006KT 10SM CLR 32/24 A2982 RMK A01
KVKS 222235Z AUTO 36006KT 10SM CLR 33/23 A2982 RMK A01
KVKS 222215Z AUTO 35005KT 10SM CLR 33/23 A2982 RMK A01
KVKS 222155Z AUTO 01009KT 10SM CLR 34/22 A2982 RMK A01
KVKS 222135Z AUTO 35007KT 10SM CLR 34/22 A2982 RMK A01
KVKS 222115Z AUTO 36006KT 10SM CLR 34/22 A2982 RMK A01
KVKS 222055Z AUTO 35008KT 10SM CLR 34/22 A2982 RMK A01
KVKS 222035Z AUTO 01009KT 10SM CLR 34/21 A2983 RMK A01
KVKS 222015Z AUTO 36008KT 10SM CLR 34/22 A2983 RMK A01
KVKS 221955Z AUTO 34009KT 10SM CLR 33/22 A2984 RMK A01
KVKS 221935Z AUTO 33009KT 300V360 10SM CLR 33/25 A2984 RMK A01
KVKS 221915Z AUTO 32008KT 10SM CLR 33/25 A2984 RMK A01
KVKS 221855Z AUTO 34009KT 10SM FEW027 SCT038 33/25 A2985 RMK A01
KVKS 221835Z AUTO 32006KT 10SM FEW027 SCT033 SCT040 32/26 A2986 RMK A01
KVKS 221815Z AUTO 32007KT 10SM SCT033 33/25 A2986 RMK A01
KVKS 221755Z AUTO 28008KT 10SM SCT030 33/25 A2986 RMK A01
KVKS 221735Z AUTO 30008KT 280V340 10SM FEW030 33/25 A2988 RMK A01
KVKS 221715Z AUTO 29008KT 10SM CLR 33/25 A2988 RMK A01
KVKS 221655Z AUTO 31010KT 260V320 10SM CLR 32/24 A2988 RMK A01
KVKS 221635Z AUTO 30009KT 260V330 10SM CLR 32/24 A2988 RMK A01
KVKS 221615Z AUTO 29008KT 10SM CLR 32/25 A2988 RMK A01
KVKS 221555Z AUTO 25007KT 10SM SCT025 31/24 A2989 RMK A01
KVKS 221535Z AUTO VRB05KT 10SM BKN026 31/25 A2989 RMK A01
KVKS 221515Z AUTO 28005KT 10SM SCT024 30/25 A2989 RMK A01
KVKS 221455Z AUTO 27006G11KT 9SM FEW020 30/25 A2989 RMK A01
KVKS 221435Z AUTO 28008G13KT 10SM CLR 29/24 A2989 RMK A01
KVKS 221415Z AUTO 28007G12KT 250V310 10SM CLR 29/25 A2989 RMK A01
KVKS 221355Z AUTO VRB06G12KT 10SM CLR 29/25 A2989 RMK A01
KVKS 221335Z AUTO 25008KT 220V280 10SM CLR 29/25 A2989 RMK A01
KVKS 221315Z AUTO 23006KT 10SM CLR 28/25 A2989 RMK A01
KVKS 221255Z AUTO 23007KT 10SM CLR 28/25 A2989 RMK A01
KVKS 221235Z AUTO 24007KT 9SM CLR 27/25 A2989 RMK A01
KVKS 221215Z AUTO 22005KT 10SM CLR 27/25 A2989 RMK A01
KVKS 221155Z AUTO 23004KT 9SM FEW120 27/24 A2989 RMK A01
KVKS 221135Z AUTO 21007KT 9SM FEW120 27/24 A2989 RMK A01
KVKS 221115Z AUTO 22004KT 10SM FEW120 27/24 A2989 RMK A01
KVKS 221055Z AUTO 22005KT 10SM SCT080 SCT090 27/24 A2989 RMK A01
KVKS 221035Z AUTO 22005KT 10SM BKN075 OVC090 27/24 A2988 RMK A01
KVKS 221015Z AUTO 23003KT 10SM BKN075 OVC090 27/24 A2988 RMK A01
KVKS 220955Z AUTO 21005KT 10SM BKN075 BKN090 27/24 A2988 RMK A01
KVKS 220935Z AUTO 21005KT 10SM BKN075 BKN090 27/24 A2987 RMK A01
KVKS 220915Z AUTO 20005KT 10SM OVC075 27/24 A2987 RMK A01
KVKS 220855Z AUTO 21005KT 10SM OVC075 27/24 A2987 RMK A01
KVKS 220835Z AUTO 21006KT 10SM BKN075 OVC090 27/24 A2986 RMK A01
KVKS 220815Z AUTO 22005KT 10SM OVC075 27/24 A2986 RMK A01
KVKS 220755Z AUTO 21005KT 10SM BKN080 27/24 A2987 RMK A01
KVKS 220735Z AUTO 22005KT 10SM CLR 27/23 A2987 RMK A01
KVKS 220715Z AUTO 21006KT 10SM CLR 27/23 A2987 RMK A01
KVKS 220655Z AUTO 22005KT 10SM CLR 28/23 A2987 RMK A01
KVKS 220635Z AUTO 22005KT 10SM CLR 28/23 A2987 RMK A01
KVKS 220615Z AUTO 21006KT 10SM CLR 28/23 A2987 RMK A01
KVKS 220555Z AUTO 21006KT 10SM CLR 28/23 A2988 RMK A01
KVKS 220535Z AUTO 20004KT 10SM CLR 28/24 A2988 RMK A01
KVKS 220515Z AUTO 21004KT 10SM CLR 28/24 A2988 RMK A01
KVKS 220455Z AUTO 21004KT 10SM CLR 27/26 A2988 RMK A01
KVKS 220435Z AUTO 00000KT 10SM CLR 27/25 A2988 RMK A01
KVKS 220415Z AUTO 00000KT 10SM CLR 28/25 A2988 RMK A01
KVKS 220355Z AUTO 33004KT 10SM CLR 28/25 A2988 RMK A01
KVKS 220335Z AUTO 33003KT 10SM CLR 29/25 A2987 RMK A01
KVKS 220315Z AUTO 21003KT 10SM CLR 29/25 A2987 RMK A01
KVKS 220255Z AUTO 00000KT 10SM CLR 30/25 A2986 RMK A01
KVKS 220235Z AUTO 20004KT 10SM CLR 30/25 A2986 RMK A01
KVKS 220215Z AUTO 20004KT 10SM CLR 30/25 A2985 RMK A01
KVKS 220155Z AUTO 19004KT 10SM CLR 30/25 A2985 RMK A01
KVKS 220135Z AUTO 19005KT 10SM CLR 30/25 A2985 RMK A01
KVKS 220115Z AUTO 21004KT 10SM CLR 31/26 A2985 RMK A01
KVKS 220055Z AUTO 20005KT 10SM CLR 32/26 A2985 RMK A01
KVKS 220035Z AUTO 20006KT 10SM CLR 32/26 A2984 RMK A01
KVKS 220015Z AUTO 20007KT 8SM CLR 33/26 A2984 RMK A01
KVKS 212355Z AUTO 20009KT 10SM CLR 34/26 A2985 RMK A01
KVKS 212335Z AUTO 21008KT 10SM CLR 34/26 A2985 RMK A01
KVKS 212315Z AUTO 20008KT 10SM CLR 35/26 A2985 RMK A01
KVKS 212255Z AUTO 20008KT 10SM CLR 35/27 A2986 RMK A01
KVKS 212235Z AUTO 21007KT 10SM CLR 36/27 A2986 RMK A01
KVKS 212215Z AUTO 23005G10KT 10SM CLR 35/24 A2986 RMK A01
KVKS 212155Z AUTO 23006G13KT 10SM CLR 35/24 A2987 RMK A01
KVKS 212135Z AUTO 23007KT 10SM CLR 36/25 A2987 RMK A01
KVKS 212115Z AUTO 25008KT 10SM CLR 36/24 A2987 RMK A01
KVKS 212055Z AUTO 23007G12KT 210V270 10SM CLR 36/24 A2988 RMK A01
KVKS 212035Z AUTO 24009KT 10SM CLR 36/24 A2989 RMK A01
KVKS 212015Z AUTO 26008G13KT 10SM CLR 35/24 A2990 RMK A01
KVKS 211955Z AUTO 22008G13KT 10SM CLR 35/25 A2990 RMK A01